Time;durP1;ratioP1;P1;durP2;ratioP2;P2;SDS_P1;SDS_P2;PMS_P1;PMS_P2;Temp;Humidity;BMP_temperature;BMP_pressure;BME280_temperature;BME280_humidity;BME280_pressure;Samples;Min_cycle;Max_cycle;Signal;HPM_P1;HPM_P2
2024/04/10 00:02:18;;;;;;;0.30;0.20;;;19.40;89.60;;;;;;5407539;26;20504;-74
2024/04/10 00:04:51;;;;;;;0.30;0.20;;;19.40;89.60;;;;;;5407552;26;20508;-74
2024/04/10 00:07:17;;;;;;;0.30;0.20;;;19.30;89.50;;;;;;5407327;26;20474;-74
2024/04/10 00:09:43;;;;;;;0.30;0.20;;;19.30;89.20;;;;;;5407513;26;20490;-74
2024/04/10 00:12:08;;;;;;;1.33;0.60;;;19.20;89.80;;;;;;5407097;26;20557;-74
2024/04/10 00:14:38;;;;;;;0.30;0.20;;;19.10;88.80;;;;;;5407815;26;20687;-74
2024/04/10 00:17:04;;;;;;;0.40;0.40;;;19.10;88.60;;;;;;5407376;26;20267;-75
2024/04/10 00:19:30;;;;;;;0.30;0.20;;;19.00;88.40;;;;;;5407485;26;20544;-75
2024/04/10 00:21:55;;;;;;;0.70;0.70;;;18.90;88.10;;;;;;5407508;26;20813;-74
2024/04/10 00:24:21;;;;;;;0.30;0.20;;;18.90;88.00;;;;;;5407442;26;20456;-74
2024/04/10 00:26:51;;;;;;;0.30;0.20;;;18.80;88.20;;;;;;5407177;26;20228;-74
2024/04/10 00:29:17;;;;;;;0.47;0.40;;;18.80;88.00;;;;;;5406890;26;20325;-74
2024/04/10 00:31:45;;;;;;;0.30;0.20;;;18.70;88.00;;;;;;5407090;26;20539;-75
2024/04/10 00:34:11;;;;;;;0.63;0.60;;;18.70;88.00;;;;;;5405508;26;20237;-74
2024/04/10 00:36:36;;;;;;;0.30;0.20;;;18.70;88.00;;;;;;5407006;26;21157;-74
2024/04/10 00:39:02;;;;;;;0.60;0.50;;;18.70;87.90;;;;;;5407316;26;20522;-74
2024/04/10 00:41:28;;;;;;;0.30;0.20;;;18.70;88.00;;;;;;5407168;26;20664;-74
2024/04/10 00:43:53;;;;;;;0.30;0.20;;;18.70;88.10;;;;;;5406993;26;20305;-74
2024/04/10 00:46:21;;;;;;;0.40;0.20;;;18.60;88.00;;;;;;5407075;26;20768;-74
2024/04/10 00:48:47;;;;;;;0.40;0.40;;;18.60;88.00;;;;;;5405207;26;20462;-76
2024/04/10 00:51:18;;;;;;;0.40;0.30;;;18.60;88.10;;;;;;5405112;26;20449;-76
2024/04/10 00:53:44;;;;;;;0.30;0.20;;;18.60;88.10;;;;;;5407055;26;20503;-74
2024/04/10 00:56:10;;;;;;;0.30;0.20;;;18.60;88.00;;;;;;5406300;26;20450;-74
2024/04/10 00:58:38;;;;;;;0.77;0.77;;;18.50;88.10;;;;;;5406732;26;20464;-74
2024/04/10 01:01:04;;;;;;;0.30;0.20;;;18.50;88.30;;;;;;5406649;26;20790;-74
2024/04/10 01:03:31;;;;;;;0.40;0.40;;;18.40;88.20;;;;;;5404863;26;20524;-74
2024/04/10 01:05:58;;;;;;;0.30;0.30;;;18.40;88.30;;;;;;5405003;26;20450;-74
2024/04/10 01:08:26;;;;;;;0.30;0.20;;;18.40;88.50;;;;;;5413700;26;20678;-74
2024/04/10 01:10:51;;;;;;;0.93;0.93;;;18.30;88.50;;;;;;5406463;26;20702;-74
2024/04/10 01:13:18;;;;;;;0.57;0.57;;;18.30;88.60;;;;;;5407028;26;20461;-74
2024/04/10 01:15:44;;;;;;;0.30;0.30;;;18.30;88.80;;;;;;5405083;26;20304;-74
2024/04/10 01:18:11;;;;;;;0.40;0.40;;;18.20;89.00;;;;;;5405035;26;20474;-74
2024/04/10 01:20:36;;;;;;;0.30;0.20;;;18.20;89.10;;;;;;5405359;26;20501;-74
2024/04/10 01:23:04;;;;;;;1.40;1.40;;;18.10;90.00;;;;;;5404783;26;20477;-74
2024/04/10 01:25:29;;;;;;;0.30;0.20;;;18.10;89.60;;;;;;5406912;26;20295;-74
2024/04/10 01:27:55;;;;;;;0.30;0.20;;;18.00;89.70;;;;;;5404604;26;20466;-74
2024/04/10 01:30:21;;;;;;;0.30;0.20;;;18.10;89.40;;;;;;5406642;26;20223;-74
2024/04/10 01:32:47;;;;;;;0.80;0.40;;;18.10;89.40;;;;;;5404435;26;20473;-74
2024/04/10 01:35:13;;;;;;;0.37;0.30;;;18.10;89.30;;;;;;5405282;26;20246;-74
2024/04/10 01:37:38;;;;;;;0.57;0.53;;;18.10;89.50;;;;;;5404782;26;20283;-74
2024/04/10 01:40:04;;;;;;;0.30;0.30;;;18.10;89.30;;;;;;5406530;26;20224;-74
2024/04/10 01:42:30;;;;;;;0.40;0.30;;;18.10;89.30;;;;;;5406370;26;20243;-74
2024/04/10 01:44:56;;;;;;;1.77;0.70;;;18.00;89.50;;;;;;5406896;26;20223;-76
2024/04/10 01:47:21;;;;;;;0.30;0.20;;;18.00;90.00;;;;;;5406101;26;20865;-74
2024/04/10 01:49:48;;;;;;;0.30;0.20;;;18.00;90.30;;;;;;5406589;26;20216;-74
2024/04/10 01:52:14;;;;;;;1.07;0.63;;;17.90;90.10;;;;;;5404146;26;20231;-74
2024/04/10 01:54:39;;;;;;;0.30;0.20;;;17.90;89.90;;;;;;5406648;26;20450;-75
2024/04/10 01:57:05;;;;;;;0.40;0.30;;;17.90;89.80;;;;;;5403314;26;20284;-74
2024/04/10 01:59:31;;;;;;;0.40;0.30;;;17.90;89.90;;;;;;5403997;26;20256;-74
2024/04/10 02:01:57;;;;;;;0.53;0.53;;;17.90;90.70;;;;;;5406009;26;20860;-74
2024/04/10 02:04:22;;;;;;;0.30;0.20;;;17.80;90.70;;;;;;5404332;26;20290;-74
2024/04/10 02:06:48;;;;;;;0.80;0.80;;;17.80;90.70;;;;;;5404292;26;20556;-74
2024/04/10 02:09:14;;;;;;;0.30;0.30;;;17.80;90.60;;;;;;5405490;26;20243;-74
2024/04/10 02:11:40;;;;;;;0.40;0.30;;;17.80;90.80;;;;;;5405261;26;20274;-74
2024/04/10 02:14:06;;;;;;;0.40;0.40;;;17.70;90.60;;;;;;5404249;26;20472;-74
2024/04/10 02:16:31;;;;;;;0.30;0.30;;;17.70;90.40;;;;;;5405583;26;20866;-74
2024/04/10 02:18:57;;;;;;;0.70;0.60;;;17.70;90.70;;;;;;5406064;26;20907;-74
2024/04/10 02:21:23;;;;;;;0.30;0.20;;;17.70;90.70;;;;;;5403843;26;20465;-74
2024/04/10 02:23:49;;;;;;;0.30;0.30;;;17.70;90.60;;;;;;5405579;26;20472;-74
2024/04/10 02:26:15;;;;;;;0.70;0.43;;;17.70;90.20;;;;;;5405352;26;20227;-74
2024/04/10 02:28:41;;;;;;;0.30;0.20;;;17.70;90.20;;;;;;5405982;26;20547;-74
2024/04/10 02:31:07;;;;;;;0.30;0.20;;;17.70;90.20;;;;;;5405851;26;20229;-74
2024/04/10 02:33:39;;;;;;;2.50;2.30;;;17.60;90.30;;;;;;5403713;26;20528;-74
2024/04/10 02:36:06;;;;;;;0.30;0.20;;;17.70;90.60;;;;;;5405381;26;20536;-74
2024/04/10 02:38:33;;;;;;;0.30;0.20;;;17.70;90.90;;;;;;5405217;26;20907;-74
2024/04/10 02:41:38;;;;;;;0.30;0.20;;;17.60;91.10;;;;;;5405509;26;20939;-74
2024/04/10 02:44:04;;;;;;;0.30;0.30;;;17.60;91.30;;;;;;5405287;26;20449;-74
2024/04/10 02:46:30;;;;;;;0.30;0.30;;;17.50;91.50;;;;;;5404877;26;20505;-74
2024/04/10 02:48:55;;;;;;;0.40;0.30;;;17.40;91.70;;;;;;5403615;26;20334;-74
2024/04/10 02:51:21;;;;;;;0.50;0.50;;;17.30;91.60;;;;;;5403285;26;20235;-74
2024/04/10 02:53:47;;;;;;;0.30;0.20;;;17.40;91.70;;;;;;5403676;26;20797;-74
2024/04/10 02:56:13;;;;;;;0.30;0.20;;;17.40;91.70;;;;;;5402839;26;20234;-75
2024/04/10 02:58:40;;;;;;;0.60;0.60;;;17.40;91.70;;;;;;5405269;26;20450;-74
2024/04/10 03:01:06;;;;;;;0.30;0.20;;;17.30;91.80;;;;;;5404615;26;20624;-74
2024/04/10 03:03:32;;;;;;;0.30;0.30;;;17.30;91.90;;;;;;5403349;26;20499;-74
2024/04/10 03:06:04;;;;;;;0.30;0.20;;;17.30;92.10;;;;;;5405082;26;20445;-74
2024/04/10 03:08:31;;;;;;;0.30;0.20;;;17.30;92.10;;;;;;5404390;26;20520;-74
2024/04/10 03:10:57;;;;;;;0.33;0.30;;;17.30;92.20;;;;;;5401461;26;20438;-74
2024/04/10 03:13:23;;;;;;;0.50;0.40;;;17.20;92.30;;;;;;5403202;26;20446;-74
2024/04/10 03:15:49;;;;;;;0.57;0.57;;;17.20;92.30;;;;;;5403060;26;20238;-74
2024/04/10 03:18:16;;;;;;;1.50;1.40;;;17.20;92.20;;;;;;5403121;26;21154;-74
2024/04/10 03:20:41;;;;;;;0.30;0.20;;;17.20;92.10;;;;;;5405248;26;20293;-74
2024/04/10 03:23:07;;;;;;;0.30;0.30;;;17.10;92.50;;;;;;5404449;26;20469;-74
2024/04/10 03:25:33;;;;;;;0.30;0.20;;;17.10;92.60;;;;;;5404679;26;20294;-75
2024/04/10 03:27:59;;;;;;;1.23;1.13;;;17.00;93.00;;;;;;5404325;26;20571;-74
2024/04/10 03:30:26;;;;;;;0.50;0.50;;;17.00;92.60;;;;;;5404774;26;20253;-74
2024/04/10 03:32:53;;;;;;;0.77;0.77;;;17.00;92.50;;;;;;5404751;26;21016;-74
2024/04/10 03:35:19;;;;;;;0.30;0.30;;;17.00;92.40;;;;;;5402901;26;20452;-75
2024/04/10 03:37:45;;;;;;;0.57;0.57;;;17.00;92.40;;;;;;5404398;26;20785;-74
2024/04/10 03:40:11;;;;;;;0.30;0.20;;;17.10;92.30;;;;;;5404401;26;21052;-75
2024/04/10 03:42:37;;;;;;;0.47;0.47;;;17.10;92.30;;;;;;5404368;26;20625;-74
2024/04/10 03:45:04;;;;;;;0.30;0.20;;;17.10;92.40;;;;;;5404544;26;20441;-74
2024/04/10 03:47:30;;;;;;;0.30;0.20;;;17.10;92.20;;;;;;5403946;26;20553;-74
2024/04/10 03:49:56;;;;;;;0.30;0.30;;;17.00;92.10;;;;;;5404282;26;20997;-74
2024/04/10 03:52:22;;;;;;;0.50;0.50;;;17.00;92.00;;;;;;5403773;26;20516;-75
2024/04/10 03:54:48;;;;;;;0.30;0.23;;;17.00;92.00;;;;;;5404180;26;20445;-74
2024/04/10 03:57:13;;;;;;;0.40;0.20;;;16.90;92.00;;;;;;5403847;26;20626;-75
2024/04/10 03:59:39;;;;;;;0.30;0.20;;;16.90;91.90;;;;;;5404190;26;20550;-75
2024/04/10 04:02:04;;;;;;;0.40;0.20;;;16.80;92.10;;;;;;5403448;26;20700;-74
2024/04/10 04:04:30;;;;;;;0.40;0.30;;;16.70;92.10;;;;;;5402488;26;20223;-75
2024/04/10 04:06:56;;;;;;;0.30;0.30;;;16.60;92.30;;;;;;5402399;26;20235;-75
2024/04/10 04:09:22;;;;;;;0.30;0.20;;;16.60;92.30;;;;;;5401022;26;20281;-75
2024/04/10 04:11:48;;;;;;;0.30;0.30;;;16.60;92.40;;;;;;5400783;26;20278;-75
2024/04/10 04:14:14;;;;;;;0.30;0.30;;;16.50;92.60;;;;;;5398106;26;20473;-75
2024/04/10 04:16:40;;;;;;;0.53;0.53;;;16.50;92.60;;;;;;5401182;26;20501;-74
2024/04/10 04:19:05;;;;;;;0.30;0.20;;;16.50;92.80;;;;;;5401792;26;20449;-74
2024/04/10 04:21:31;;;;;;;0.30;0.20;;;16.50;92.80;;;;;;5399345;26;20727;-75
2024/04/10 04:24:00;;;;;;;0.40;0.30;;;16.40;93.10;;;;;;5404986;26;20277;-74
2024/04/10 04:26:26;;;;;;;0.60;0.60;;;16.50;92.90;;;;;;5415701;26;20450;-74
2024/04/10 04:28:52;;;;;;;0.30;0.20;;;16.40;92.90;;;;;;5442455;26;21146;-74
2024/04/10 04:31:18;;;;;;;0.60;0.60;;;16.50;92.90;;;;;;5440643;26;20498;-74
2024/04/10 04:33:44;;;;;;;0.30;0.20;;;16.50;92.80;;;;;;5442718;26;20511;-74
2024/04/10 04:36:10;;;;;;;9.70;2.20;;;16.60;92.90;;;;;;5440845;26;20532;-74
2024/04/10 04:38:36;;;;;;;0.30;0.30;;;16.60;92.80;;;;;;5442686;26;20577;-74
2024/04/10 04:41:03;;;;;;;0.30;0.20;;;16.70;92.90;;;;;;5442692;26;20474;-75
2024/04/10 04:43:29;;;;;;;1.20;1.10;;;16.70;92.70;;;;;;5443029;26;20463;-74
2024/04/10 04:45:54;;;;;;;0.30;0.20;;;16.80;92.80;;;;;;5443093;26;21090;-74
2024/04/10 04:48:20;;;;;;;0.30;0.20;;;16.80;92.80;;;;;;5442808;26;20331;-74
2024/04/10 04:50:47;;;;;;;0.30;0.30;;;16.90;92.70;;;;;;5442437;26;20264;-75
2024/04/10 04:53:13;;;;;;;0.40;0.30;;;16.90;92.80;;;;;;5442244;26;20273;-74
2024/04/10 04:55:40;;;;;;;0.40;0.40;;;17.00;92.80;;;;;;5439706;26;20691;-75
2024/04/10 04:58:06;;;;;;;0.30;0.20;;;17.00;92.50;;;;;;5439638;26;20463;-74
2024/04/10 05:00:32;;;;;;;0.33;0.30;;;17.00;92.70;;;;;;5437692;26;20983;-74
2024/04/10 05:02:59;;;;;;;1.07;1.00;;;17.00;93.20;;;;;;5438422;26;20930;-74
2024/04/10 05:05:25;;;;;;;0.30;0.20;;;17.10;93.30;;;;;;5435372;26;20439;-74
2024/04/10 05:07:51;;;;;;;0.30;0.20;;;17.10;92.80;;;;;;5438088;26;20471;-74
2024/04/10 05:10:17;;;;;;;0.30;0.20;;;17.10;92.50;;;;;;5441964;26;20809;-74
2024/04/10 05:12:44;;;;;;;0.33;0.30;;;17.10;92.40;;;;;;5439464;26;20459;-74
2024/04/10 05:15:11;;;;;;;1.27;1.27;;;17.20;92.30;;;;;;5438667;26;20801;-74
2024/04/10 05:17:41;;;;;;;0.63;0.63;;;17.20;92.40;;;;;;5440062;26;20514;-74
2024/04/10 05:20:11;;;;;;;0.30;0.30;;;17.30;92.30;;;;;;5438952;26;20863;-74
2024/04/10 05:22:41;;;;;;;0.30;0.20;;;17.30;92.20;;;;;;5439416;26;20842;-75
2024/04/10 05:25:09;;;;;;;0.40;0.40;;;17.40;92.20;;;;;;5433889;26;20955;-74
2024/04/10 05:27:35;;;;;;;0.30;0.20;;;17.50;92.20;;;;;;5437768;26;20523;-74
2024/04/10 05:30:06;;;;;;;1.27;0.73;;;17.60;92.20;;;;;;5437169;26;20794;-74
2024/04/10 05:32:35;;;;;;;4.30;1.03;;;17.60;92.20;;;;;;5433616;26;20661;-74
2024/04/10 05:35:01;;;;;;;0.60;0.60;;;17.70;92.20;;;;;;5434851;26;20444;-75
2024/04/10 05:37:26;;;;;;;0.30;0.20;;;17.80;91.90;;;;;;5433051;26;20529;-74
2024/04/10 05:40:10;;;;;;;0.40;0.37;;;17.90;92.20;;;;;;5437357;26;20219;-75
2024/04/10 05:42:37;;;;;;;0.40;0.33;;;18.00;91.90;;;;;;5435296;26;20993;-74
2024/04/10 05:45:10;;;;;;;0.30;0.20;;;18.10;92.00;;;;;;5438490;26;21012;-74
2024/04/10 05:47:40;;;;;;;0.70;0.70;;;18.20;92.30;;;;;;5433899;26;20480;-74
2024/04/10 05:50:08;;;;;;;1.73;1.60;;;18.30;92.70;;;;;;5438163;26;20504;-74
2024/04/10 05:52:34;;;;;;;0.30;0.20;;;18.40;93.00;;;;;;5434878;26;20605;-74
2024/04/10 05:55:00;;;;;;;0.30;0.20;;;18.50;93.20;;;;;;5436600;26;20911;-74
2024/04/10 05:57:27;;;;;;;1.60;1.17;;;18.60;93.50;;;;;;5435453;26;20985;-75
2024/04/10 05:59:56;;;;;;;0.30;0.20;;;18.70;93.80;;;;;;5437513;26;20219;-74
2024/04/10 06:02:23;;;;;;;0.30;0.20;;;18.80;94.20;;;;;;5428533;26;21017;-75
2024/04/10 06:04:52;;;;;;;0.40;0.30;;;18.80;94.40;;;;;;5431363;26;20675;-75
2024/04/10 06:07:18;;;;;;;0.30;0.20;;;18.90;94.60;;;;;;5433216;26;20510;-74
2024/04/10 06:09:44;;;;;;;0.33;0.30;;;19.00;94.80;;;;;;5433735;26;20464;-74
2024/04/10 06:12:10;;;;;;;0.30;0.30;;;19.10;94.90;;;;;;5432918;26;20843;-74
2024/04/10 06:14:36;;;;;;;0.40;0.40;;;19.20;95.10;;;;;;5435268;26;20462;-74
2024/04/10 06:17:02;;;;;;;0.30;0.20;;;19.30;95.50;;;;;;5437691;26;20759;-75
2024/04/10 06:19:27;;;;;;;0.50;0.50;;;19.40;95.20;;;;;;5436288;26;20868;-75
2024/04/10 06:21:53;;;;;;;2.60;1.37;;;19.40;95.20;;;;;;5435878;26;20279;-74
2024/04/10 06:24:21;;;;;;;0.30;0.20;;;19.50;95.30;;;;;;5438009;26;20233;-75
2024/04/10 06:26:46;;;;;;;0.30;0.20;;;19.60;95.40;;;;;;5437001;26;20225;-75
2024/04/10 06:29:12;;;;;;;0.30;0.20;;;19.80;95.60;;;;;;5435565;26;20522;-75
2024/04/10 06:31:39;;;;;;;0.73;0.70;;;19.80;95.70;;;;;;5435466;26;20293;-74
2024/04/10 06:34:06;;;;;;;0.30;0.20;;;19.90;95.60;;;;;;5426452;26;20869;-74
2024/04/10 06:36:31;;;;;;;0.30;0.20;;;20.00;95.80;;;;;;5433087;26;20439;-74
2024/04/10 06:38:57;;;;;;;0.30;0.30;;;20.10;95.80;;;;;;5435864;26;20455;-74
2024/04/10 06:41:23;;;;;;;0.60;0.60;;;20.20;95.90;;;;;;5436731;26;20762;-75
2024/04/10 06:43:48;;;;;;;0.70;0.70;;;20.30;96.10;;;;;;5436260;26;20241;-75
2024/04/10 06:46:16;;;;;;;0.70;0.70;;;20.40;96.30;;;;;;5432991;26;20446;-75
2024/04/10 06:48:44;;;;;;;0.40;0.30;;;20.50;96.30;;;;;;5434223;26;20241;-75
2024/04/10 06:51:10;;;;;;;0.47;0.47;;;20.50;96.20;;;;;;5432640;26;20527;-74
2024/04/10 06:53:36;;;;;;;0.40;0.30;;;20.70;96.30;;;;;;5435373;26;20495;-74
2024/04/10 06:56:04;;;;;;;0.30;0.30;;;20.70;96.30;;;;;;5432596;26;20451;-75
2024/04/10 06:58:33;;;;;;;0.50;0.47;;;20.90;96.40;;;;;;5432570;26;20275;-75
2024/04/10 07:01:02;;;;;;;0.30;0.20;;;20.90;96.30;;;;;;5434245;26;20919;-75
2024/04/10 07:03:29;;;;;;;0.30;0.20;;;21.00;96.20;;;;;;5434070;26;20451;-75
2024/04/10 07:06:09;;;;;;;0.40;0.40;;;21.10;96.00;;;;;;5429954;26;20510;-75
2024/04/10 07:08:36;;;;;;;0.50;0.50;;;21.20;96.10;;;;;;5431607;26;20471;-74
2024/04/10 07:11:09;;;;;;;0.30;0.20;;;21.30;96.00;;;;;;5432493;26;21067;-74
2024/04/10 07:13:35;;;;;;;0.73;0.73;;;21.40;96.00;;;;;;5432826;26;20826;-74
2024/04/10 07:16:02;;;;;;;0.30;0.20;;;21.40;95.90;;;;;;5434657;26;20440;-75
2024/04/10 07:18:30;;;;;;;0.97;0.97;;;21.50;95.70;;;;;;5433997;26;20459;-75
2024/04/10 07:21:03;;;;;;;0.30;0.20;;;21.50;95.90;;;;;;5433272;26;20447;-75
2024/04/10 07:23:31;;;;;;;0.30;0.20;;;21.60;95.80;;;;;;5434474;26;20523;-75
2024/04/10 07:26:12;;;;;;;0.30;0.30;;;21.60;95.80;;;;;;5434125;26;20514;-75
2024/04/10 07:28:45;;;;;;;1.23;1.17;;;21.70;96.00;;;;;;5432672;26;20456;-75
2024/04/10 07:31:14;;;;;;;0.30;0.20;;;21.70;96.00;;;;;;5416677;26;20506;-75
2024/04/10 07:33:40;;;;;;;0.57;0.57;;;21.80;96.10;;;;;;5431325;26;21080;-75
2024/04/10 07:36:13;;;;;;;0.37;0.30;;;21.90;96.10;;;;;;5431106;26;20479;-75
2024/04/10 07:38:40;;;;;;;0.30;0.20;;;22.00;95.70;;;;;;5435168;26;20683;-75
2024/04/10 07:41:06;;;;;;;0.40;0.40;;;22.10;95.80;;;;;;5413571;26;20485;-76
2024/04/10 07:43:36;;;;;;;0.40;0.33;;;22.20;95.80;;;;;;5424223;26;20469;-75
2024/04/10 07:46:08;;;;;;;1.00;1.00;;;22.30;95.90;;;;;;5408875;26;21019;-75
2024/04/10 07:48:34;;;;;;;0.60;0.50;;;22.40;95.60;;;;;;5408967;26;20524;-74
2024/04/10 07:51:08;;;;;;;0.70;0.33;;;22.40;95.70;;;;;;5418767;26;20448;-75
2024/04/10 07:53:35;;;;;;;0.30;0.20;;;22.50;95.70;;;;;;5407726;26;20687;-75
2024/04/10 07:56:02;;;;;;;0.73;0.73;;;22.60;95.80;;;;;;5430836;26;21035;-76
2024/04/10 07:58:28;;;;;;;0.40;0.40;;;22.70;95.70;;;;;;5436590;26;20574;-75
2024/04/10 08:00:56;;;;;;;0.43;0.43;;;22.80;95.60;;;;;;5434655;26;20448;-75
2024/04/10 08:03:26;;;;;;;0.30;0.27;;;22.90;95.70;;;;;;5436264;26;20467;-75
2024/04/10 08:05:52;;;;;;;0.40;0.40;;;23.00;95.60;;;;;;5435703;26;20449;-76
2024/04/10 08:08:18;;;;;;;0.30;0.30;;;23.10;95.50;;;;;;5435630;26;20464;-76
2024/04/10 08:10:44;;;;;;;0.30;0.20;;;23.20;95.50;;;;;;5436545;26;20900;-76
2024/04/10 08:13:13;;;;;;;0.30;0.20;;;23.30;95.30;;;;;;5440139;26;20460;-75
2024/04/10 08:15:38;;;;;;;0.40;0.30;;;23.30;95.20;;;;;;5410830;26;20233;-76
2024/04/10 08:18:05;;;;;;;0.43;0.43;;;23.30;95.10;;;;;;5482134;26;20542;-76
2024/04/10 08:20:31;;;;;;;1.30;1.20;;;23.40;95.00;;;;;;5436972;26;20271;-75
2024/04/10 08:22:58;;;;;;;0.30;0.20;;;23.50;94.90;;;;;;5434371;26;20480;-76
2024/04/10 08:25:24;;;;;;;0.30;0.20;;;23.50;94.90;;;;;;5438137;26;21105;-76
2024/04/10 08:27:50;;;;;;;0.87;0.43;;;23.50;94.90;;;;;;5437158;26;20599;-76
2024/04/10 08:30:16;;;;;;;0.30;0.20;;;23.60;94.80;;;;;;5438840;26;20440;-75
2024/04/10 08:32:42;;;;;;;0.60;0.60;;;23.60;94.80;;;;;;5433866;26;20649;-75
2024/04/10 08:35:08;;;;;;;0.30;0.30;;;23.70;94.70;;;;;;5434374;26;20510;-76
2024/04/10 08:37:34;;;;;;;0.30;0.20;;;23.70;94.60;;;;;;5426771;26;20822;-76
2024/04/10 08:39:59;;;;;;;0.30;0.20;;;23.80;94.50;;;;;;5431340;26;20674;-76
2024/04/10 08:42:27;;;;;;;0.30;0.20;;;23.90;94.50;;;;;;5474299;26;20277;-77
2024/04/10 08:44:53;;;;;;;0.30;0.20;;;24.10;94.50;;;;;;5430377;26;20275;-77
2024/04/10 08:47:20;;;;;;;0.30;0.20;;;24.40;94.40;;;;;;5435497;26;20454;-77
2024/04/10 08:49:45;;;;;;;0.70;0.70;;;25.10;93.60;;;;;;5438173;26;20568;-76
2024/04/10 08:52:13;;;;;;;1.17;1.07;;;25.70;93.00;;;;;;5429944;26;20463;-77
2024/04/10 08:54:39;;;;;;;0.50;0.50;;;26.20;92.60;;;;;;5433314;26;20616;-77
2024/04/10 08:57:05;;;;;;;0.47;0.47;;;26.40;92.20;;;;;;5432168;26;21083;-77
2024/04/10 08:59:31;;;;;;;0.50;0.40;;;26.40;91.80;;;;;;5428213;26;20229;-76
2024/04/10 09:01:57;;;;;;;0.30;0.20;;;26.30;91.70;;;;;;5432764;26;20447;-76
2024/04/10 09:04:24;;;;;;;0.77;0.73;;;26.20;91.70;;;;;;5431235;26;20734;-76
2024/04/10 09:07:02;;;;;;;0.80;0.80;;;26.10;91.80;;;;;;5431427;26;21019;-76
2024/04/10 09:09:28;;;;;;;0.30;0.20;;;26.00;91.70;;;;;;5428658;26;20467;-76
2024/04/10 09:11:54;;;;;;;0.30;0.30;;;25.80;91.50;;;;;;5430322;26;20510;-73
2024/04/10 09:14:19;;;;;;;0.67;0.67;;;25.70;91.70;;;;;;5429292;26;20459;-75
2024/04/10 09:16:45;;;;;;;0.30;0.20;;;25.60;91.60;;;;;;5428658;26;20508;-76
2024/04/10 09:19:12;;;;;;;0.30;0.27;;;25.50;91.70;;;;;;5433005;26;20242;-77
2024/04/10 09:21:42;;;;;;;0.30;0.30;;;25.50;91.70;;;;;;5432361;26;20241;-77
2024/04/10 09:24:13;;;;;;;0.30;0.20;;;25.50;91.50;;;;;;5427208;26;21106;-75
2024/04/10 09:26:41;;;;;;;0.30;0.20;;;25.50;91.30;;;;;;5430491;26;20432;-76
2024/04/10 09:29:12;;;;;;;0.57;0.57;;;25.50;91.20;;;;;;5433147;26;21165;-76
2024/04/10 09:31:39;;;;;;;0.30;0.20;;;25.50;90.80;;;;;;5423324;26;20466;-76
2024/04/10 09:34:08;;;;;;;0.70;0.63;;;25.40;90.90;;;;;;5436119;26;21078;-76
2024/04/10 09:36:34;;;;;;;0.30;0.20;;;25.40;91.00;;;;;;5424295;26;20472;-76
2024/04/10 09:39:00;;;;;;;0.30;0.20;;;25.40;90.70;;;;;;5431376;26;20645;-76
2024/04/10 09:41:31;;;;;;;0.30;0.20;;;25.30;90.70;;;;;;5427924;26;20591;-76
2024/04/10 09:43:58;;;;;;;0.30;0.20;;;25.30;90.80;;;;;;5424856;26;20575;-76
2024/04/10 09:46:37;;;;;;;0.40;0.40;;;25.30;90.70;;;;;;5427304;26;20587;-76
2024/04/10 09:49:10;;;;;;;0.50;0.47;;;25.30;90.50;;;;;;5428593;26;20463;-76
2024/04/10 09:51:39;;;;;;;0.30;0.20;;;25.30;91.00;;;;;;5421965;26;20455;-76
2024/04/10 09:54:10;;;;;;;0.30;0.20;;;25.30;90.90;;;;;;5425398;26;20933;-76
2024/04/10 09:56:37;;;;;;;0.30;0.20;;;25.30;90.90;;;;;;5427643;26;20470;-76
2024/04/10 09:59:06;;;;;;;0.40;0.40;;;25.30;90.90;;;;;;5431783;26;20568;-75
2024/04/10 10:01:31;;;;;;;0.30;0.30;;;25.30;90.80;;;;;;5428220;26;20475;-76
2024/04/10 10:03:57;;;;;;;0.30;0.30;;;25.30;91.00;;;;;;5431814;26;20927;-76
2024/04/10 10:06:30;;;;;;;0.40;0.30;;;25.30;91.00;;;;;;5436965;26;20238;-77
2024/04/10 10:08:56;;;;;;;0.30;0.20;;;25.30;90.60;;;;;;5436625;26;20455;-75
2024/04/10 10:11:24;;;;;;;0.53;0.53;;;25.30;90.80;;;;;;5433355;26;20645;-76
2024/04/10 10:14:04;;;;;;;1.57;0.67;;;25.30;91.10;;;;;;5436735;26;20245;-76
2024/04/10 10:16:31;;;;;;;0.30;0.30;;;25.20;91.10;;;;;;5436653;26;20839;-76
2024/04/10 10:19:02;;;;;;;0.30;0.20;;;25.10;91.00;;;;;;5432163;26;20559;-76
2024/04/10 10:21:30;;;;;;;0.30;0.20;;;25.10;91.20;;;;;;5431927;26;20452;-76
2024/04/10 10:24:03;;;;;;;0.40;0.40;;;25.10;90.80;;;;;;5436683;26;20534;-76
2024/04/10 10:26:28;;;;;;;0.30;0.30;;;25.10;90.90;;;;;;5428062;26;20493;-76
2024/04/10 10:29:05;;;;;;;0.40;0.37;;;25.10;91.00;;;;;;5399594;26;20528;-76
2024/04/10 10:31:31;;;;;;;0.30;0.20;;;25.10;90.90;;;;;;5395878;26;20238;-75
2024/04/10 10:34:00;;;;;;;0.47;0.40;;;25.10;90.80;;;;;;5416793;26;20512;-77
2024/04/10 10:36:25;;;;;;;0.30;0.30;;;25.10;90.90;;;;;;5429743;26;20808;-75
2024/04/10 10:39:02;;;;;;;0.30;0.30;;;25.20;90.80;;;;;;5430563;26;20495;-76
2024/04/10 10:41:28;;;;;;;1.30;1.30;;;25.20;90.90;;;;;;5432165;26;20245;-76
2024/04/10 10:43:58;;;;;;;0.50;0.37;;;25.20;90.70;;;;;;5475226;26;20837;-75
2024/04/10 10:46:24;;;;;;;0.30;0.20;;;25.20;90.40;;;;;;5431820;26;20287;-76
2024/04/10 10:48:50;;;;;;;0.30;0.20;;;25.20;90.40;;;;;;5458074;26;20459;-76
2024/04/10 10:51:18;;;;;;;0.30;0.30;;;25.30;90.20;;;;;;5432116;26;20289;-76
2024/04/10 10:53:44;;;;;;;0.37;0.30;;;25.30;90.10;;;;;;5432862;26;20308;-76
2024/04/10 10:56:09;;;;;;;0.40;0.40;;;25.40;90.00;;;;;;5435289;26;21008;-76
2024/04/10 10:58:35;;;;;;;0.30;0.20;;;25.40;89.70;;;;;;5435955;26;20450;-76
2024/04/10 11:01:06;;;;;;;0.30;0.20;;;25.50;89.70;;;;;;5418503;26;20297;-76
2024/04/10 11:03:32;;;;;;;0.73;0.67;;;25.50;89.50;;;;;;5428575;26;20269;-75
2024/04/10 11:06:11;;;;;;;0.40;0.40;;;25.50;88.90;;;;;;5434580;26;20728;-76
2024/04/10 11:08:36;;;;;;;0.30;0.20;;;25.60;88.10;;;;;;5434754;26;20288;-76
2024/04/10 11:11:04;;;;;;;0.40;0.30;;;25.60;89.40;;;;;;5426767;26;20781;-76
2024/04/10 11:13:30;;;;;;;0.30;0.20;;;25.60;89.00;;;;;;5474867;26;20250;-76
2024/04/10 11:15:58;;;;;;;0.30;0.30;;;25.60;89.10;;;;;;5431816;26;20444;-77
2024/04/10 11:18:24;;;;;;;0.30;0.20;;;25.70;89.10;;;;;;5420223;26;21048;-75
2024/04/10 11:20:51;;;;;;;0.50;0.50;;;25.70;88.50;;;;;;5428856;26;20500;-76
2024/04/10 11:23:18;;;;;;;0.30;0.20;;;25.70;88.40;;;;;;5430872;26;20459;-75
2024/04/10 11:25:44;;;;;;;0.80;0.77;;;25.70;88.30;;;;;;5430627;26;20555;-76
2024/04/10 11:28:11;;;;;;;0.40;0.30;;;25.70;88.50;;;;;;5433963;26;20637;-75
2024/04/10 11:30:37;;;;;;;2.40;1.00;;;25.70;88.10;;;;;;5466927;26;20533;-76
2024/04/10 11:33:06;;;;;;;0.40;0.40;;;25.70;88.10;;;;;;5430720;26;20503;-75
2024/04/10 11:35:32;;;;;;;0.30;0.20;;;25.70;87.70;;;;;;5427080;26;20500;-76
2024/04/10 11:37:58;;;;;;;0.30;0.20;;;25.60;87.40;;;;;;5423760;26;20467;-75
2024/04/10 11:40:23;;;;;;;1.77;1.03;;;25.60;87.60;;;;;;5431742;26;20455;-75
2024/04/10 11:42:49;;;;;;;0.30;0.20;;;25.70;87.90;;;;;;5428626;26;20234;-75
2024/04/10 11:45:16;;;;;;;0.70;0.50;;;25.70;87.90;;;;;;5430559;26;20374;-76
2024/04/10 11:47:43;;;;;;;0.50;0.50;;;25.70;88.10;;;;;;5428706;26;20523;-76
2024/04/10 11:50:13;;;;;;;0.30;0.20;;;25.70;87.90;;;;;;5427131;26;20479;-77
2024/04/10 11:52:40;;;;;;;0.43;0.40;;;25.80;88.20;;;;;;5425865;26;20515;-75
2024/04/10 11:55:07;;;;;;;0.40;0.30;;;25.80;88.30;;;;;;5428952;26;21169;-75
2024/04/10 11:57:34;;;;;;;1.17;1.10;;;25.90;88.20;;;;;;5473876;26;20735;-75
2024/04/10 12:00:00;;;;;;;0.30;0.20;;;25.90;88.00;;;;;;5429569;26;20463;-76
2024/04/10 12:02:26;;;;;;;0.30;0.30;;;25.90;87.70;;;;;;5473818;26;20523;-77
2024/04/10 12:04:52;;;;;;;0.30;0.20;;;26.00;88.00;;;;;;5427969;26;20237;-75
2024/04/10 12:07:18;;;;;;;0.30;0.20;;;25.90;88.00;;;;;;5429084;26;20226;-74
2024/04/10 12:09:47;;;;;;;0.53;0.53;;;26.00;87.90;;;;;;5429266;26;20535;-74
2024/04/10 12:12:14;;;;;;;0.30;0.20;;;25.90;87.90;;;;;;5420414;26;20491;-75
2024/04/10 12:14:46;;;;;;;0.40;0.30;;;25.90;87.60;;;;;;5415493;26;21083;-75
2024/04/10 12:17:12;;;;;;;0.33;0.30;;;25.90;87.30;;;;;;5433759;26;21410;-75
2024/04/10 12:19:38;;;;;;;0.30;0.20;;;25.90;87.30;;;;;;5431649;26;20467;-75
2024/04/10 12:22:08;;;;;;;0.30;0.20;;;25.90;87.40;;;;;;5427845;26;20237;-75
2024/04/10 12:24:36;;;;;;;0.30;0.30;;;25.90;87.60;;;;;;5428708;26;20456;-75
2024/04/10 12:27:02;;;;;;;0.30;0.20;;;25.90;87.20;;;;;;5466801;26;20475;-76
2024/04/10 12:29:28;;;;;;;0.30;0.30;;;26.00;87.00;;;;;;5425019;26;20581;-75
2024/04/10 12:31:54;;;;;;;0.30;0.20;;;25.90;86.80;;;;;;5419347;26;20360;-76
2024/04/10 12:34:20;;;;;;;0.30;0.20;;;25.90;86.90;;;;;;5468420;26;20257;-76
2024/04/10 12:39:30;;;;;;;0.30;0.20;;;25.90;87.30;;;;;;5420842;26;20362;-76
2024/04/10 12:41:56;;;;;;;0.30;0.30;;;26.00;86.90;;;;;;5431691;26;20928;-75
2024/04/10 12:44:22;;;;;;;0.30;0.20;;;26.00;86.80;;;;;;5431560;26;20226;-75
2024/04/10 12:46:55;;;;;;;0.40;0.30;;;26.10;87.10;;;;;;5433025;26;20600;-76
2024/04/10 12:49:22;;;;;;;0.30;0.20;;;26.00;86.60;;;;;;5430629;26;20526;-75
2024/04/10 12:51:48;;;;;;;0.50;0.50;;;26.10;86.50;;;;;;5432455;26;20956;-76